sensor_id;sensor_type;location;lat;lon;timestamp;pressure;altitude;pressure_sealevel;temperature;humidity
61436;BME280;47304;47.456;19.160;2022-12-18T00:01:33;101650.31;;;-2.56;74.29
61436;BME280;47304;47.456;19.160;2022-12-18T00:04:07;101656.93;;;-2.53;74.26
61436;BME280;47304;47.456;19.160;2022-12-18T00:06:38;101662.91;;;-2.48;74.15
61436;BME280;47304;47.456;19.160;2022-12-18T00:09:08;101669.13;;;-2.45;73.87
61436;BME280;47304;47.456;19.160;2022-12-18T00:11:36;101672.08;;;-2.45;73.69
61436;BME280;47304;47.456;19.160;2022-12-18T00:14:04;101678.48;;;-2.42;73.77
61436;BME280;47304;47.456;19.160;2022-12-18T00:16:31;101682.94;;;-2.39;73.70
61436;BME280;47304;47.456;19.160;2022-12-18T00:18:59;101685.02;;;-2.37;73.72
61436;BME280;47304;47.456;19.160;2022-12-18T00:21:28;101690.41;;;-2.33;73.71
61436;BME280;47304;47.456;19.160;2022-12-18T00:23:57;101697.48;;;-2.33;73.27
61436;BME280;47304;47.456;19.160;2022-12-18T00:26:30;101705.95;;;-2.35;73.29
61436;BME280;47304;47.456;19.160;2022-12-18T00:29:02;101709.28;;;-2.36;73.24
61436;BME280;47304;47.456;19.160;2022-12-18T00:31:32;101713.90;;;-2.36;73.37
61436;BME280;47304;47.456;19.160;2022-12-18T00:34:00;101718.19;;;-2.37;73.25
61436;BME280;47304;47.456;19.160;2022-12-18T00:36:32;101716.66;;;-2.38;73.19
61436;BME280;47304;47.456;19.160;2022-12-18T00:39:01;101714.71;;;-2.39;73.12
61436;BME280;47304;47.456;19.160;2022-12-18T00:41:29;101719.71;;;-2.41;73.23
61436;BME280;47304;47.456;19.160;2022-12-18T00:43:57;101722.33;;;-2.40;73.28
61436;BME280;47304;47.456;19.160;2022-12-18T00:46:24;101721.72;;;-2.44;72.89
61436;BME280;47304;47.456;19.160;2022-12-18T00:48:52;101730.55;;;-2.48;73.01
61436;BME280;47304;47.456;19.160;2022-12-18T00:51:20;101738.41;;;-2.48;73.16
61436;BME280;47304;47.456;19.160;2022-12-18T00:53:47;101741.92;;;-2.49;73.08
61436;BME280;47304;47.456;19.160;2022-12-18T00:56:15;101744.37;;;-2.49;73.06
61436;BME280;47304;47.456;19.160;2022-12-18T00:58:42;101748.73;;;-2.48;73.10
61436;BME280;47304;47.456;19.160;2022-12-18T01:01:10;101750.87;;;-2.45;73.25
61436;BME280;47304;47.456;19.160;2022-12-18T01:03:38;101749.83;;;-2.42;73.14
61436;BME280;47304;47.456;19.160;2022-12-18T01:06:09;101756.53;;;-2.40;72.99
61436;BME280;47304;47.456;19.160;2022-12-18T01:08:38;101759.63;;;-2.40;72.73
61436;BME280;47304;47.456;19.160;2022-12-18T01:11:11;101757.51;;;-2.43;72.88
61436;BME280;47304;47.456;19.160;2022-12-18T01:13:40;101765.08;;;-2.45;72.75
61436;BME280;47304;47.456;19.160;2022-12-18T01:16:11;101763.27;;;-2.47;72.81
61436;BME280;47304;47.456;19.160;2022-12-18T01:18:39;101767.78;;;-2.48;72.78
61436;BME280;47304;47.456;19.160;2022-12-18T01:21:09;101765.19;;;-2.48;72.82
61436;BME280;47304;47.456;19.160;2022-12-18T01:23:37;101770.12;;;-2.47;72.85
61436;BME280;47304;47.456;19.160;2022-12-18T01:26:15;101771.33;;;-2.47;72.58
61436;BME280;47304;47.456;19.160;2022-12-18T01:28:43;101773.29;;;-2.48;72.57
61436;BME280;47304;47.456;19.160;2022-12-18T01:33:39;101781.17;;;-2.43;72.81
61436;BME280;47304;47.456;19.160;2022-12-18T01:36:08;101783.91;;;-2.41;72.93
61436;BME280;47304;47.456;19.160;2022-12-18T01:38:36;101784.05;;;-2.42;72.47
61436;BME280;47304;47.456;19.160;2022-12-18T01:41:03;101784.13;;;-2.43;72.66
61436;BME280;47304;47.456;19.160;2022-12-18T01:43:45;101782.82;;;-2.44;72.68
61436;BME280;47304;47.456;19.160;2022-12-18T01:46:14;101787.27;;;-2.45;72.79
61436;BME280;47304;47.456;19.160;2022-12-18T01:48:42;101790.50;;;-2.43;73.03
61436;BME280;47304;47.456;19.160;2022-12-18T01:51:11;101794.34;;;-2.42;72.74
61436;BME280;47304;47.456;19.160;2022-12-18T01:53:41;101798.52;;;-2.43;72.48
61436;BME280;47304;47.456;19.160;2022-12-18T01:56:13;101798.55;;;-2.43;72.73
61436;BME280;47304;47.456;19.160;2022-12-18T01:58:56;101802.55;;;-2.40;72.78
61436;BME280;47304;47.456;19.160;2022-12-18T02:01:25;101809.82;;;-2.39;72.60
61436;BME280;47304;47.456;19.160;2022-12-18T02:03:53;101811.96;;;-2.38;72.54
61436;BME280;47304;47.456;19.160;2022-12-18T02:06:34;101816.07;;;-2.36;72.71
61436;BME280;47304;47.456;19.160;2022-12-18T02:09:13;101812.89;;;-2.32;72.59
61436;BME280;47304;47.456;19.160;2022-12-18T02:11:56;101815.97;;;-2.30;72.59
61436;BME280;47304;47.456;19.160;2022-12-18T02:14:44;101817.99;;;-2.28;72.50
61436;BME280;47304;47.456;19.160;2022-12-18T02:17:35;101816.53;;;-2.29;72.30
61436;BME280;47304;47.456;19.160;2022-12-18T02:20:28;101824.80;;;-2.33;72.23
61436;BME280;47304;47.456;19.160;2022-12-18T02:26:13;101827.52;;;-2.37;72.73
61436;BME280;47304;47.456;19.160;2022-12-18T02:28:46;101826.27;;;-2.35;72.66
61436;BME280;47304;47.456;19.160;2022-12-18T02:31:21;101828.90;;;-2.32;72.86
61436;BME280;47304;47.456;19.160;2022-12-18T02:33:53;101836.25;;;-2.28;73.09
61436;BME280;47304;47.456;19.160;2022-12-18T02:36:23;101839.29;;;-2.26;72.67
61436;BME280;47304;47.456;19.160;2022-12-18T02:38:53;101838.77;;;-2.28;72.39
61436;BME280;47304;47.456;19.160;2022-12-18T02:41:23;101845.38;;;-2.34;72.31
61436;BME280;47304;47.456;19.160;2022-12-18T02:44:00;101847.79;;;-2.39;72.58
61436;BME280;47304;47.456;19.160;2022-12-18T02:46:35;101851.02;;;-2.39;72.65
61436;BME280;47304;47.456;19.160;2022-12-18T02:54:49;101852.63;;;-2.47;72.81
61436;BME280;47304;47.456;19.160;2022-12-18T02:57:25;101857.04;;;-2.53;72.92
61436;BME280;47304;47.456;19.160;2022-12-18T03:00:06;101864.90;;;-2.55;73.34
61436;BME280;47304;47.456;19.160;2022-12-18T03:05:31;101874.38;;;-2.52;73.46
61436;BME280;47304;47.456;19.160;2022-12-18T03:08:16;101876.64;;;-2.50;73.49
61436;BME280;47304;47.456;19.160;2022-12-18T03:10:53;101874.83;;;-2.49;73.71
61436;BME280;47304;47.456;19.160;2022-12-18T03:13:33;101878.15;;;-2.48;73.44
61436;BME280;47304;47.456;19.160;2022-12-18T03:16:05;101880.52;;;-2.48;73.52
61436;BME280;47304;47.456;19.160;2022-12-18T03:18:48;101883.89;;;-2.49;73.69
61436;BME280;47304;47.456;19.160;2022-12-18T03:21:21;101885.70;;;-2.53;73.48
61436;BME280;47304;47.456;19.160;2022-12-18T03:23:52;101891.88;;;-2.57;73.47
61436;BME280;47304;47.456;19.160;2022-12-18T03:26:24;101886.88;;;-2.64;73.31
61436;BME280;47304;47.456;19.160;2022-12-18T03:29:06;101891.05;;;-2.70;73.60
61436;BME280;47304;47.456;19.160;2022-12-18T03:31:37;101899.88;;;-2.73;73.72
61436;BME280;47304;47.456;19.160;2022-12-18T03:34:15;101898.86;;;-2.78;73.72
61436;BME280;47304;47.456;19.160;2022-12-18T03:36:44;101909.70;;;-2.82;73.78
61436;BME280;47304;47.456;19.160;2022-12-18T03:39:12;101910.45;;;-2.85;73.78
61436;BME280;47304;47.456;19.160;2022-12-18T03:52:30;101923.29;;;-3.07;74.39
61436;BME280;47304;47.456;19.160;2022-12-18T03:55:01;101921.90;;;-3.12;74.36
61436;BME280;47304;47.456;19.160;2022-12-18T03:57:32;101918.34;;;-3.14;74.48
61436;BME280;47304;47.456;19.160;2022-12-18T04:00:04;101920.95;;;-3.15;74.45
61436;BME280;47304;47.456;19.160;2022-12-18T04:02:34;101923.20;;;-3.19;74.57
61436;BME280;47304;47.456;19.160;2022-12-18T04:05:05;101924.11;;;-3.21;74.74
61436;BME280;47304;47.456;19.160;2022-12-18T04:07:34;101926.83;;;-3.21;74.85
61436;BME280;47304;47.456;19.160;2022-12-18T04:10:03;101934.15;;;-3.24;74.69
61436;BME280;47304;47.456;19.160;2022-12-18T04:12:32;101933.13;;;-3.28;74.80
61436;BME280;47304;47.456;19.160;2022-12-18T04:15:00;101939.96;;;-3.31;74.94
61436;BME280;47304;47.456;19.160;2022-12-18T04:17:27;101937.05;;;-3.33;75.04
61436;BME280;47304;47.456;19.160;2022-12-18T04:19:55;101939.65;;;-3.33;75.15
61436;BME280;47304;47.456;19.160;2022-12-18T04:22:23;101937.26;;;-3.32;75.19
61436;BME280;47304;47.456;19.160;2022-12-18T04:24:50;101942.98;;;-3.33;75.11
61436;BME280;47304;47.456;19.160;2022-12-18T04:27:18;101940.66;;;-3.35;75.14
61436;BME280;47304;47.456;19.160;2022-12-18T04:29:46;101945.01;;;-3.36;75.22
61436;BME280;47304;47.456;19.160;2022-12-18T04:32:13;101943.75;;;-3.37;75.52
61436;BME280;47304;47.456;19.160;2022-12-18T04:34:41;101946.06;;;-3.36;75.52
61436;BME280;47304;47.456;19.160;2022-12-18T04:37:08;101944.79;;;-3.39;75.26
61436;BME280;47304;47.456;19.160;2022-12-18T04:39:36;101946.52;;;-3.43;75.36
61436;BME280;47304;47.456;19.160;2022-12-18T04:42:04;101952.88;;;-3.47;75.32
61436;BME280;47304;47.456;19.160;2022-12-18T04:44:31;101954.72;;;-3.49;75.42
61436;BME280;47304;47.456;19.160;2022-12-18T04:46:59;101958.64;;;-3.50;75.54
61436;BME280;47304;47.456;19.160;2022-12-18T04:49:26;101971.17;;;-3.52;75.44
61436;BME280;47304;47.456;19.160;2022-12-18T04:51:54;101973.52;;;-3.52;75.58
61436;BME280;47304;47.456;19.160;2022-12-18T04:54:22;101978.55;;;-3.54;75.59
61436;BME280;47304;47.456;19.160;2022-12-18T04:56:50;101980.60;;;-3.56;75.55
61436;BME280;47304;47.456;19.160;2022-12-18T04:59:17;101987.90;;;-3.57;75.51
61436;BME280;47304;47.456;19.160;2022-12-18T05:01:45;101987.71;;;-3.57;75.63
61436;BME280;47304;47.456;19.160;2022-12-18T05:04:13;101986.13;;;-3.55;75.47
61436;BME280;47304;47.456;19.160;2022-12-18T05:06:40;101986.60;;;-3.54;75.46
61436;BME280;47304;47.456;19.160;2022-12-18T05:09:08;101988.73;;;-3.53;75.42
61436;BME280;47304;47.456;19.160;2022-12-18T05:11:36;101993.29;;;-3.52;75.33
61436;BME280;47304;47.456;19.160;2022-12-18T05:14:03;101996.31;;;-3.50;75.33
61436;BME280;47304;47.456;19.160;2022-12-18T05:16:31;102002.01;;;-3.50;75.38
61436;BME280;47304;47.456;19.160;2022-12-18T05:18:59;102004.55;;;-3.48;75.45
61436;BME280;47304;47.456;19.160;2022-12-18T05:21:26;102008.01;;;-3.46;75.13
61436;BME280;47304;47.456;19.160;2022-12-18T05:23:54;102003.45;;;-3.45;75.25
61436;BME280;47304;47.456;19.160;2022-12-18T05:26:21;102008.91;;;-3.47;75.02
61436;BME280;47304;47.456;19.160;2022-12-18T05:28:49;102005.14;;;-3.51;75.07
61436;BME280;47304;47.456;19.160;2022-12-18T05:31:17;102012.88;;;-3.53;75.09
61436;BME280;47304;47.456;19.160;2022-12-18T05:33:44;102022.09;;;-3.56;75.10
61436;BME280;47304;47.456;19.160;2022-12-18T05:36:12;102026.64;;;-3.58;75.13
61436;BME280;47304;47.456;19.160;2022-12-18T05:38:40;102031.10;;;-3.61;75.13
61436;BME280;47304;47.456;19.160;2022-12-18T05:41:09;102029.33;;;-3.63;75.27
61436;BME280;47304;47.456;19.160;2022-12-18T05:43:38;102032.80;;;-3.67;75.26
61436;BME280;47304;47.456;19.160;2022-12-18T05:46:11;102035.09;;;-3.70;75.45
61436;BME280;47304;47.456;19.160;2022-12-18T05:48:39;102035.00;;;-3.76;75.64
61436;BME280;47304;47.456;19.160;2022-12-18T05:51:09;102033.38;;;-3.81;75.70
61436;BME280;47304;47.456;19.160;2022-12-18T05:53:38;102037.67;;;-3.82;75.73
61436;BME280;47304;47.456;19.160;2022-12-18T05:56:12;102043.70;;;-3.84;75.59
61436;BME280;47304;47.456;19.160;2022-12-18T05:58:40;102047.05;;;-3.85;75.57
61436;BME280;47304;47.456;19.160;2022-12-18T06:01:31;102049.30;;;-3.83;75.68
61436;BME280;47304;47.456;19.160;2022-12-18T06:03:57;102050.42;;;-3.80;75.69
61436;BME280;47304;47.456;19.160;2022-12-18T06:06:27;102050.25;;;-3.78;75.54
61436;BME280;47304;47.456;19.160;2022-12-18T06:08:56;102049.31;;;-3.77;75.57
61436;BME280;47304;47.456;19.160;2022-12-18T06:11:26;102051.54;;;-3.74;75.48
61436;BME280;47304;47.456;19.160;2022-12-18T06:13:55;102055.04;;;-3.76;75.69
61436;BME280;47304;47.456;19.160;2022-12-18T06:16:27;102056.61;;;-3.77;75.81
61436;BME280;47304;47.456;19.160;2022-12-18T06:19:03;102054.11;;;-3.80;75.77
61436;BME280;47304;47.456;19.160;2022-12-18T06:21:31;102056.48;;;-3.83;75.71
61436;BME280;47304;47.456;19.160;2022-12-18T06:24:00;102057.95;;;-3.84;75.70
61436;BME280;47304;47.456;19.160;2022-12-18T06:26:27;102065.66;;;-3.85;75.47
61436;BME280;47304;47.456;19.160;2022-12-18T06:28:55;102074.97;;;-3.89;75.52
61436;BME280;47304;47.456;19.160;2022-12-18T06:31:23;102080.46;;;-3.93;75.54
61436;BME280;47304;47.456;19.160;2022-12-18T06:33:51;102091.57;;;-3.95;75.66
61436;BME280;47304;47.456;19.160;2022-12-18T06:36:19;102094.04;;;-3.96;75.77
61436;BME280;47304;47.456;19.160;2022-12-18T06:38:46;102100.38;;;-3.96;75.88
61436;BME280;47304;47.456;19.160;2022-12-18T06:41:16;102105.21;;;-3.96;75.89
61436;BME280;47304;47.456;19.160;2022-12-18T06:43:45;102106.63;;;-3.95;75.93
61436;BME280;47304;47.456;19.160;2022-12-18T06:46:12;102113.48;;;-3.95;76.02
61436;BME280;47304;47.456;19.160;2022-12-18T06:48:40;102117.35;;;-3.96;76.14
61436;BME280;47304;47.456;19.160;2022-12-18T06:51:08;102117.80;;;-3.95;76.11
61436;BME280;47304;47.456;19.160;2022-12-18T06:53:35;102114.35;;;-3.95;76.24
61436;BME280;47304;47.456;19.160;2022-12-18T06:56:06;102114.11;;;-3.94;76.31
61436;BME280;47304;47.456;19.160;2022-12-18T06:58:38;102113.89;;;-3.91;76.15
61436;BME280;47304;47.456;19.160;2022-12-18T07:01:08;102119.05;;;-3.86;76.04
61436;BME280;47304;47.456;19.160;2022-12-18T07:03:38;102128.86;;;-3.80;75.95
61436;BME280;47304;47.456;19.160;2022-12-18T07:06:13;102134.08;;;-3.75;75.65
61436;BME280;47304;47.456;19.160;2022-12-18T07:08:41;102138.80;;;-3.68;75.73
61436;BME280;47304;47.456;19.160;2022-12-18T07:11:09;102138.41;;;-3.62;75.70
61436;BME280;47304;47.456;19.160;2022-12-18T07:13:37;102138.73;;;-3.56;75.51
61436;BME280;47304;47.456;19.160;2022-12-18T07:16:13;102145.40;;;-3.50;75.49
61436;BME280;47304;47.456;19.160;2022-12-18T07:18:50;102148.20;;;-3.43;75.33
61436;BME280;47304;47.456;19.160;2022-12-18T07:21:19;102153.89;;;-3.37;75.37
61436;BME280;47304;47.456;19.160;2022-12-18T07:23:47;102157.94;;;-3.32;75.34
61436;BME280;47304;47.456;19.160;2022-12-18T07:26:17;102160.59;;;-3.26;75.25
61436;BME280;47304;47.456;19.160;2022-12-18T07:28:45;102166.94;;;-3.22;75.21
61436;BME280;47304;47.456;19.160;2022-12-18T07:31:19;102169.15;;;-3.18;75.13
61436;BME280;47304;47.456;19.160;2022-12-18T07:33:49;102170.02;;;-3.14;75.17
61436;BME280;47304;47.456;19.160;2022-12-18T07:36:18;102181.60;;;-3.09;75.41
61436;BME280;47304;47.456;19.160;2022-12-18T07:38:49;102183.98;;;-3.03;75.34
61436;BME280;47304;47.456;19.160;2022-12-18T07:41:17;102187.55;;;-2.97;75.30
61436;BME280;47304;47.456;19.160;2022-12-18T07:43:46;102190.08;;;-2.91;75.28
61436;BME280;47304;47.456;19.160;2022-12-18T07:46:15;102187.66;;;-2.85;75.35
61436;BME280;47304;47.456;19.160;2022-12-18T07:48:44;102190.84;;;-2.80;75.30
61436;BME280;47304;47.456;19.160;2022-12-18T07:51:17;102194.96;;;-2.73;75.09
61436;BME280;47304;47.456;19.160;2022-12-18T07:53:45;102200.05;;;-2.64;75.09
61436;BME280;47304;47.456;19.160;2022-12-18T07:56:16;102201.41;;;-2.55;74.84
61436;BME280;47304;47.456;19.160;2022-12-18T07:58:59;102212.46;;;-2.44;74.69
61436;BME280;47304;47.456;19.160;2022-12-18T08:01:27;102215.70;;;-2.31;74.61
61436;BME280;47304;47.456;19.160;2022-12-18T08:03:55;102221.13;;;-2.20;74.46
61436;BME280;47304;47.456;19.160;2022-12-18T08:06:23;102222.66;;;-2.09;73.56
61436;BME280;47304;47.456;19.160;2022-12-18T08:08:52;102229.20;;;-2.00;73.63
61436;BME280;47304;47.456;19.160;2022-12-18T08:11:21;102229.23;;;-1.87;73.56
61436;BME280;47304;47.456;19.160;2022-12-18T08:13:49;102226.41;;;-1.59;73.26
61436;BME280;47304;47.456;19.160;2022-12-18T08:16:17;102228.45;;;-1.06;73.57
61436;BME280;47304;47.456;19.160;2022-12-18T08:18:46;102228.03;;;-0.06;71.29
61436;BME280;47304;47.456;19.160;2022-12-18T08:21:17;102228.05;;;0.50;69.96
61436;BME280;47304;47.456;19.160;2022-12-18T08:23:47;102228.40;;;0.88;69.24
61436;BME280;47304;47.456;19.160;2022-12-18T08:26:20;102230.89;;;1.45;67.93
61436;BME280;47304;47.456;19.160;2022-12-18T08:28:49;102229.64;;;2.09;65.97
61436;BME280;47304;47.456;19.160;2022-12-18T08:31:18;102228.55;;;2.63;63.92
61436;BME280;47304;47.456;19.160;2022-12-18T08:33:48;102227.96;;;2.46;63.64
61436;BME280;47304;47.456;19.160;2022-12-18T08:36:16;102229.45;;;3.23;61.86
61436;BME280;47304;47.456;19.160;2022-12-18T08:38:44;102232.73;;;4.48;58.77
61436;BME280;47304;47.456;19.160;2022-12-18T08:41:15;102234.80;;;5.49;57.03
61436;BME280;47304;47.456;19.160;2022-12-18T08:43:43;102231.36;;;6.55;55.27
61436;BME280;47304;47.456;19.160;2022-12-18T08:46:11;102227.51;;;6.74;52.61
61436;BME280;47304;47.456;19.160;2022-12-18T08:48:39;102227.98;;;6.77;51.67
61436;BME280;47304;47.456;19.160;2022-12-18T08:51:06;102224.05;;;7.60;50.61
61436;BME280;47304;47.456;19.160;2022-12-18T08:53:34;102215.48;;;8.72;48.53
61436;BME280;47304;47.456;19.160;2022-12-18T08:56:03;102220.27;;;9.12;44.27
61436;BME280;47304;47.456;19.160;2022-12-18T08:58:30;102227.33;;;8.39;43.08
61436;BME280;47304;47.456;19.160;2022-12-18T09:01:03;102234.19;;;7.19;45.09
61436;BME280;47304;47.456;19.160;2022-12-18T09:03:32;102235.01;;;6.43;46.09
61436;BME280;47304;47.456;19.160;2022-12-18T09:05:59;102240.84;;;5.76;47.65
61436;BME280;47304;47.456;19.160;2022-12-18T09:08:27;102249.77;;;5.45;48.76
61436;BME280;47304;47.456;19.160;2022-12-18T09:10:55;102252.59;;;6.60;48.95
61436;BME280;47304;47.456;19.160;2022-12-18T09:13:23;102250.03;;;8.57;44.29
61436;BME280;47304;47.456;19.160;2022-12-18T09:15:52;102239.88;;;10.15;43.57
61436;BME280;47304;47.456;19.160;2022-12-18T09:18:22;102238.92;;;11.69;40.92
61436;BME280;47304;47.456;19.160;2022-12-18T09:20:50;102239.65;;;13.05;37.99
61436;BME280;47304;47.456;19.160;2022-12-18T09:23:19;102237.39;;;13.99;35.57
61436;BME280;47304;47.456;19.160;2022-12-18T09:25:47;102236.72;;;14.50;33.88
61436;BME280;47304;47.456;19.160;2022-12-18T09:28:17;102233.63;;;14.68;33.90
61436;BME280;47304;47.456;19.160;2022-12-18T09:30:47;102234.73;;;14.22;34.04
61436;BME280;47304;47.456;19.160;2022-12-18T09:33:16;102238.83;;;13.36;34.31
61436;BME280;47304;47.456;19.160;2022-12-18T09:35:45;102241.60;;;12.45;34.82
61436;BME280;47304;47.456;19.160;2022-12-18T09:38:16;102249.33;;;11.70;35.87
61436;BME280;47304;47.456;19.160;2022-12-18T09:40:47;102250.30;;;10.99;36.55
61436;BME280;47304;47.456;19.160;2022-12-18T09:43:26;102249.75;;;10.56;37.34
61436;BME280;47304;47.456;19.160;2022-12-18T09:46:00;102251.95;;;10.19;37.83
61436;BME280;47304;47.456;19.160;2022-12-18T09:48:32;102251.30;;;9.93;38.28
61436;BME280;47304;47.456;19.160;2022-12-18T09:51:05;102253.34;;;9.59;39.28
61436;BME280;47304;47.456;19.160;2022-12-18T09:53:37;102250.73;;;10.09;40.42
61436;BME280;47304;47.456;19.160;2022-12-18T09:56:06;102255.29;;;11.77;37.79
61436;BME280;47304;47.456;19.160;2022-12-18T09:58:41;102253.23;;;12.00;37.00
61436;BME280;47304;47.456;19.160;2022-12-18T10:01:20;102247.08;;;11.23;37.28
61436;BME280;47304;47.456;19.160;2022-12-18T10:03:49;102245.72;;;10.80;38.69
61436;BME280;47304;47.456;19.160;2022-12-18T10:09:17;102239.81;;;10.34;38.57
61436;BME280;47304;47.456;19.160;2022-12-18T10:14:52;102230.60;;;12.28;37.82
61436;BME280;47304;47.456;19.160;2022-12-18T10:20:17;102229.63;;;14.23;33.84
61436;BME280;47304;47.456;19.160;2022-12-18T10:28:14;102214.60;;;18.15;30.34
61436;BME280;47304;47.456;19.160;2022-12-18T10:30:42;102218.33;;;19.78;27.44
61436;BME280;47304;47.456;19.160;2022-12-18T10:33:22;102210.30;;;20.17;26.90
61436;BME280;47304;47.456;19.160;2022-12-18T10:35:51;102204.98;;;21.10;25.55
61436;BME280;47304;47.456;19.160;2022-12-18T10:38:26;102209.15;;;22.20;24.67
61436;BME280;47304;47.456;19.160;2022-12-18T10:43:30;102200.38;;;22.83;20.61
61436;BME280;47304;47.456;19.160;2022-12-18T10:48:47;102207.92;;;22.88;21.13
61436;BME280;47304;47.456;19.160;2022-12-18T10:51:32;102212.85;;;23.30;21.13
61436;BME280;47304;47.456;19.160;2022-12-18T10:54:03;102213.50;;;23.95;21.25
61436;BME280;47304;47.456;19.160;2022-12-18T10:56:36;102207.64;;;24.63;20.95
61436;BME280;47304;47.456;19.160;2022-12-18T10:59:11;102209.92;;;25.06;20.06
61436;BME280;47304;47.456;19.160;2022-12-18T11:04:18;102206.73;;;26.54;19.90
61436;BME280;47304;47.456;19.160;2022-12-18T11:07:00;102212.78;;;27.33;19.60
61436;BME280;47304;47.456;19.160;2022-12-18T11:09:34;102212.02;;;27.55;19.26
61436;BME280;47304;47.456;19.160;2022-12-18T11:12:22;102206.13;;;26.64;19.01
61436;BME280;47304;47.456;19.160;2022-12-18T11:14:52;102209.73;;;24.79;19.23
61436;BME280;47304;47.456;19.160;2022-12-18T11:17:35;102211.23;;;22.62;20.05
61436;BME280;47304;47.456;19.160;2022-12-18T11:22:55;102213.14;;;19.15;22.85
61436;BME280;47304;47.456;19.160;2022-12-18T11:25:24;102208.48;;;18.90;23.33
61436;BME280;47304;47.456;19.160;2022-12-18T11:30:36;102200.60;;;20.52;24.02
61436;BME280;47304;47.456;19.160;2022-12-18T11:33:24;102203.53;;;21.68;22.65
61436;BME280;47304;47.456;19.160;2022-12-18T11:35:59;102203.38;;;22.84;22.08
61436;BME280;47304;47.456;19.160;2022-12-18T11:38:32;102196.43;;;23.57;21.52
61436;BME280;47304;47.456;19.160;2022-12-18T11:41:07;102192.56;;;24.02;20.69
61436;BME280;47304;47.456;19.160;2022-12-18T11:46:21;102192.03;;;24.27;19.05
61436;BME280;47304;47.456;19.160;2022-12-18T11:49:07;102193.89;;;23.93;20.03
61436;BME280;47304;47.456;19.160;2022-12-18T11:51:48;102191.79;;;24.36;19.43
61436;BME280;47304;47.456;19.160;2022-12-18T11:54:18;102185.80;;;24.26;19.28
61436;BME280;47304;47.456;19.160;2022-12-18T11:56:55;102184.81;;;24.41;19.05
61436;BME280;47304;47.456;19.160;2022-12-18T12:00:09;102182.79;;;24.44;18.70
61436;BME280;47304;47.456;19.160;2022-12-18T12:03:02;102189.47;;;23.63;18.52
61436;BME280;47304;47.456;19.160;2022-12-18T12:05:57;102190.05;;;22.72;19.43
61436;BME280;47304;47.456;19.160;2022-12-18T12:13:59;102184.65;;;20.76;21.13
61436;BME280;47304;47.456;19.160;2022-12-18T12:33:02;102195.38;;;14.87;27.65
61436;BME280;47304;47.456;19.160;2022-12-18T12:38:23;102201.62;;;15.12;27.23
61436;BME280;47304;47.456;19.160;2022-12-18T12:41:04;102203.04;;;15.11;27.09
61436;BME280;47304;47.456;19.160;2022-12-18T12:43:44;102202.77;;;14.85;27.03
61436;BME280;47304;47.456;19.160;2022-12-18T12:46:19;102203.98;;;14.84;27.06
61436;BME280;47304;47.456;19.160;2022-12-18T12:51:32;102209.08;;;14.01;28.05
61436;BME280;47304;47.456;19.160;2022-12-18T12:54:03;102214.39;;;13.68;28.34
61436;BME280;47304;47.456;19.160;2022-12-18T13:08:10;102243.89;;;9.75;33.06
61436;BME280;47304;47.456;19.160;2022-12-18T13:10:42;102241.95;;;8.98;34.59
61436;BME280;47304;47.456;19.160;2022-12-18T13:13:12;102253.48;;;8.28;35.68
61436;BME280;47304;47.456;19.160;2022-12-18T13:16:03;102256.20;;;7.69;36.94
61436;BME280;47304;47.456;19.160;2022-12-18T13:18:32;102258.79;;;7.16;37.97
61436;BME280;47304;47.456;19.160;2022-12-18T13:21:05;102260.41;;;6.69;38.95
61436;BME280;47304;47.456;19.160;2022-12-18T13:23:40;102261.92;;;6.27;39.92
61436;BME280;47304;47.456;19.160;2022-12-18T13:28:56;102262.36;;;5.61;41.79
61436;BME280;47304;47.456;19.160;2022-12-18T13:34:19;102274.96;;;4.88;42.87
61436;BME280;47304;47.456;19.160;2022-12-18T13:36:56;102283.30;;;4.56;43.67
61436;BME280;47304;47.456;19.160;2022-12-18T13:39:33;102282.45;;;4.34;44.14
61436;BME280;47304;47.456;19.160;2022-12-18T13:44:35;102296.30;;;3.90;45.44
61436;BME280;47304;47.456;19.160;2022-12-18T13:47:34;102289.77;;;3.64;45.88
61436;BME280;47304;47.456;19.160;2022-12-18T13:50:23;102296.52;;;3.40;46.36
61436;BME280;47304;47.456;19.160;2022-12-18T13:52:58;102301.98;;;3.21;47.11
61436;BME280;47304;47.456;19.160;2022-12-18T13:55:26;102299.02;;;3.07;47.63
61436;BME280;47304;47.456;19.160;2022-12-18T13:58:12;102301.15;;;2.93;48.00
61436;BME280;47304;47.456;19.160;2022-12-18T14:00:43;102298.32;;;2.81;48.63
61436;BME280;47304;47.456;19.160;2022-12-18T14:03:24;102308.80;;;2.72;49.17
61436;BME280;47304;47.456;19.160;2022-12-18T14:05:55;102308.04;;;2.65;49.54
61436;BME280;47304;47.456;19.160;2022-12-18T14:08:32;102308.00;;;2.56;49.94
61436;BME280;47304;47.456;19.160;2022-12-18T14:11:03;102302.77;;;2.44;50.39
61436;BME280;47304;47.456;19.160;2022-12-18T14:13:41;102303.20;;;2.34;50.72
61436;BME280;47304;47.456;19.160;2022-12-18T14:16:12;102304.73;;;2.23;51.20
61436;BME280;47304;47.456;19.160;2022-12-18T14:18:55;102304.83;;;2.14;51.45
61436;BME280;47304;47.456;19.160;2022-12-18T14:21:48;102308.20;;;2.05;52.31
61436;BME280;47304;47.456;19.160;2022-12-18T14:24:19;102307.35;;;1.94;52.60
61436;BME280;47304;47.456;19.160;2022-12-18T14:26:49;102310.14;;;1.87;52.79
61436;BME280;47304;47.456;19.160;2022-12-18T14:29:22;102306.00;;;1.79;53.40
61436;BME280;47304;47.456;19.160;2022-12-18T14:32:14;102308.30;;;1.69;53.43
61436;BME280;47304;47.456;19.160;2022-12-18T14:34:48;102306.01;;;1.60;53.73
61436;BME280;47304;47.456;19.160;2022-12-18T14:37:21;102311.23;;;1.53;54.28
61436;BME280;47304;47.456;19.160;2022-12-18T14:40:12;102313.95;;;1.45;54.42
61436;BME280;47304;47.456;19.160;2022-12-18T14:42:40;102317.90;;;1.37;55.24
61436;BME280;47304;47.456;19.160;2022-12-18T14:45:44;102319.92;;;1.29;55.69
61436;BME280;47304;47.456;19.160;2022-12-18T14:48:20;102331.14;;;1.18;56.23
61436;BME280;47304;47.456;19.160;2022-12-18T14:51:05;102340.10;;;1.08;56.82